sensor_id;sensor_type;location;lat;lon;timestamp;P1;durP1;ratioP1;P2;durP2;ratioP2
6638;SDS011;3355;52.882;8.430;2023-02-28T00:04:34;10.30;;;7.17;;
6638;SDS011;3355;52.882;8.430;2023-02-28T00:07:01;9.73;;;7.10;;
6638;SDS011;3355;52.882;8.430;2023-02-28T00:09:28;15.07;;;6.43;;
6638;SDS011;3355;52.882;8.430;2023-02-28T00:11:56;8.83;;;7.27;;
6638;SDS011;3355;52.882;8.430;2023-02-28T00:14:23;12.03;;;7.00;;
6638;SDS011;3355;52.882;8.430;2023-02-28T00:16:49;7.53;;;6.40;;
6638;SDS011;3355;52.882;8.430;2023-02-28T00:19:16;9.10;;;6.60;;
6638;SDS011;3355;52.882;8.430;2023-02-28T00:21:43;10.03;;;6.40;;
6638;SDS011;3355;52.882;8.430;2023-02-28T00:24:09;10.97;;;5.90;;
6638;SDS011;3355;52.882;8.430;2023-02-28T00:26:36;8.63;;;6.93;;
6638;SDS011;3355;52.882;8.430;2023-02-28T00:29:04;7.97;;;7.03;;
6638;SDS011;3355;52.882;8.430;2023-02-28T00:31:32;8.00;;;5.60;;
6638;SDS011;3355;52.882;8.430;2023-02-28T00:33:59;7.33;;;5.70;;
6638;SDS011;3355;52.882;8.430;2023-02-28T00:36:26;8.20;;;6.20;;
6638;SDS011;3355;52.882;8.430;2023-02-28T00:38:52;7.57;;;5.50;;
6638;SDS011;3355;52.882;8.430;2023-02-28T00:41:19;15.03;;;5.23;;
6638;SDS011;3355;52.882;8.430;2023-02-28T00:43:46;6.50;;;5.03;;
6638;SDS011;3355;52.882;8.430;2023-02-28T00:46:14;8.90;;;5.33;;
6638;SDS011;3355;52.882;8.430;2023-02-28T00:48:40;7.23;;;5.10;;
6638;SDS011;3355;52.882;8.430;2023-02-28T00:51:07;9.33;;;5.27;;
6638;SDS011;3355;52.882;8.430;2023-02-28T00:53:33;9.03;;;5.17;;
6638;SDS011;3355;52.882;8.430;2023-02-28T00:56:00;7.07;;;5.53;;
6638;SDS011;3355;52.882;8.430;2023-02-28T00:58:27;7.67;;;4.77;;
6638;SDS011;3355;52.882;8.430;2023-02-28T01:00:54;9.50;;;5.90;;
6638;SDS011;3355;52.882;8.430;2023-02-28T01:03:22;8.57;;;5.57;;
6638;SDS011;3355;52.882;8.430;2023-02-28T01:05:49;7.33;;;4.90;;
6638;SDS011;3355;52.882;8.430;2023-02-28T01:08:18;9.67;;;5.30;;
6638;SDS011;3355;52.882;8.430;2023-02-28T01:10:44;9.20;;;4.87;;
6638;SDS011;3355;52.882;8.430;2023-02-28T01:13:11;7.07;;;5.57;;
6638;SDS011;3355;52.882;8.430;2023-02-28T01:15:38;11.93;;;5.37;;
6638;SDS011;3355;52.882;8.430;2023-02-28T01:18:08;6.53;;;4.83;;
6638;SDS011;3355;52.882;8.430;2023-02-28T01:20:37;6.90;;;4.70;;
6638;SDS011;3355;52.882;8.430;2023-02-28T01:23:03;6.90;;;5.00;;
6638;SDS011;3355;52.882;8.430;2023-02-28T01:25:30;7.37;;;5.23;;
6638;SDS011;3355;52.882;8.430;2023-02-28T01:27:57;7.47;;;4.57;;
6638;SDS011;3355;52.882;8.430;2023-02-28T01:30:24;7.47;;;4.60;;
6638;SDS011;3355;52.882;8.430;2023-02-28T01:32:50;8.27;;;4.77;;
6638;SDS011;3355;52.882;8.430;2023-02-28T01:35:18;10.80;;;5.47;;
6638;SDS011;3355;52.882;8.430;2023-02-28T01:37:46;7.20;;;4.53;;
6638;SDS011;3355;52.882;8.430;2023-02-28T01:40:13;10.10;;;5.10;;
6638;SDS011;3355;52.882;8.430;2023-02-28T01:42:40;7.00;;;4.77;;
6638;SDS011;3355;52.882;8.430;2023-02-28T01:45:16;7.20;;;4.27;;
6638;SDS011;3355;52.882;8.430;2023-02-28T01:47:45;7.30;;;4.93;;
6638;SDS011;3355;52.882;8.430;2023-02-28T01:50:16;8.60;;;4.37;;
6638;SDS011;3355;52.882;8.430;2023-02-28T01:52:44;6.50;;;4.80;;
6638;SDS011;3355;52.882;8.430;2023-02-28T01:55:18;5.87;;;4.27;;
6638;SDS011;3355;52.882;8.430;2023-02-28T01:57:46;5.73;;;4.27;;
6638;SDS011;3355;52.882;8.430;2023-02-28T02:00:16;5.87;;;3.70;;
6638;SDS011;3355;52.882;8.430;2023-02-28T02:02:44;8.20;;;4.57;;
6638;SDS011;3355;52.882;8.430;2023-02-28T02:05:14;6.57;;;4.87;;
6638;SDS011;3355;52.882;8.430;2023-02-28T02:07:42;8.80;;;5.20;;
6638;SDS011;3355;52.882;8.430;2023-02-28T02:10:13;7.23;;;4.03;;
6638;SDS011;3355;52.882;8.430;2023-02-28T02:15:32;7.10;;;4.43;;
6638;SDS011;3355;52.882;8.430;2023-02-28T02:18:02;6.50;;;4.23;;
6638;SDS011;3355;52.882;8.430;2023-02-28T02:20:46;7.17;;;4.77;;
6638;SDS011;3355;52.882;8.430;2023-02-28T02:29:45;7.83;;;5.30;;
6638;SDS011;3355;52.882;8.430;2023-02-28T02:32:27;7.90;;;4.47;;
6638;SDS011;3355;52.882;8.430;2023-02-28T02:35:06;7.37;;;4.37;;
6638;SDS011;3355;52.882;8.430;2023-02-28T02:37:39;9.37;;;3.93;;
6638;SDS011;3355;52.882;8.430;2023-02-28T02:40:10;4.57;;;3.53;;
6638;SDS011;3355;52.882;8.430;2023-02-28T02:42:39;4.90;;;3.43;;
6638;SDS011;3355;52.882;8.430;2023-02-28T02:45:09;5.63;;;3.77;;
6638;SDS011;3355;52.882;8.430;2023-02-28T02:47:38;5.33;;;3.13;;
6638;SDS011;3355;52.882;8.430;2023-02-28T02:50:08;7.50;;;4.20;;
6638;SDS011;3355;52.882;8.430;2023-02-28T02:52:39;6.50;;;4.50;;
6638;SDS011;3355;52.882;8.430;2023-02-28T02:55:07;5.97;;;4.47;;
6638;SDS011;3355;52.882;8.430;2023-02-28T02:57:36;5.53;;;4.10;;
6638;SDS011;3355;52.882;8.430;2023-02-28T03:00:08;7.40;;;4.10;;
6638;SDS011;3355;52.882;8.430;2023-02-28T03:02:36;6.20;;;3.60;;
6638;SDS011;3355;52.882;8.430;2023-02-28T03:05:04;8.40;;;4.57;;
6638;SDS011;3355;52.882;8.430;2023-02-28T03:07:35;8.23;;;5.13;;
6638;SDS011;3355;52.882;8.430;2023-02-28T03:10:01;7.20;;;4.10;;
6638;SDS011;3355;52.882;8.430;2023-02-28T03:12:32;6.20;;;3.90;;
6638;SDS011;3355;52.882;8.430;2023-02-28T03:15:05;8.73;;;3.63;;
6638;SDS011;3355;52.882;8.430;2023-02-28T03:17:42;6.93;;;4.60;;
6638;SDS011;3355;52.882;8.430;2023-02-28T03:20:18;4.40;;;3.27;;
6638;SDS011;3355;52.882;8.430;2023-02-28T03:22:57;6.53;;;3.83;;
6638;SDS011;3355;52.882;8.430;2023-02-28T03:25:29;6.00;;;3.90;;
6638;SDS011;3355;52.882;8.430;2023-02-28T03:28:04;7.67;;;4.00;;
6638;SDS011;3355;52.882;8.430;2023-02-28T03:30:36;6.13;;;3.70;;
6638;SDS011;3355;52.882;8.430;2023-02-28T03:33:08;5.67;;;3.60;;
6638;SDS011;3355;52.882;8.430;2023-02-28T03:35:41;5.33;;;3.77;;
6638;SDS011;3355;52.882;8.430;2023-02-28T03:38:11;6.07;;;4.50;;
6638;SDS011;3355;52.882;8.430;2023-02-28T03:40:41;4.67;;;3.43;;
6638;SDS011;3355;52.882;8.430;2023-02-28T03:43:11;6.90;;;4.40;;
6638;SDS011;3355;52.882;8.430;2023-02-28T03:45:40;5.53;;;3.53;;
6638;SDS011;3355;52.882;8.430;2023-02-28T03:48:08;5.33;;;4.17;;
6638;SDS011;3355;52.882;8.430;2023-02-28T03:50:39;4.93;;;3.57;;
6638;SDS011;3355;52.882;8.430;2023-02-28T03:53:10;6.73;;;4.50;;
6638;SDS011;3355;52.882;8.430;2023-02-28T03:55:39;4.53;;;3.37;;
6638;SDS011;3355;52.882;8.430;2023-02-28T03:58:09;6.67;;;3.60;;
6638;SDS011;3355;52.882;8.430;2023-02-28T04:00:39;4.60;;;3.27;;
6638;SDS011;3355;52.882;8.430;2023-02-28T04:03:07;7.90;;;4.10;;
6638;SDS011;3355;52.882;8.430;2023-02-28T04:05:39;6.30;;;4.00;;
6638;SDS011;3355;52.882;8.430;2023-02-28T04:08:17;5.03;;;4.40;;
6638;SDS011;3355;52.882;8.430;2023-02-28T04:10:43;6.43;;;4.33;;
6638;SDS011;3355;52.882;8.430;2023-02-28T04:13:12;6.10;;;3.83;;
6638;SDS011;3355;52.882;8.430;2023-02-28T04:15:39;5.57;;;4.57;;
6638;SDS011;3355;52.882;8.430;2023-02-28T04:18:06;4.60;;;3.23;;
6638;SDS011;3355;52.882;8.430;2023-02-28T04:20:32;9.53;;;4.23;;
6638;SDS011;3355;52.882;8.430;2023-02-28T04:23:00;9.30;;;3.90;;
6638;SDS011;3355;52.882;8.430;2023-02-28T04:25:27;3.90;;;2.70;;
6638;SDS011;3355;52.882;8.430;2023-02-28T04:27:54;5.00;;;3.57;;
6638;SDS011;3355;52.882;8.430;2023-02-28T04:30:20;4.30;;;2.90;;
6638;SDS011;3355;52.882;8.430;2023-02-28T04:32:47;4.67;;;2.87;;
6638;SDS011;3355;52.882;8.430;2023-02-28T04:35:14;4.27;;;2.80;;
6638;SDS011;3355;52.882;8.430;2023-02-28T04:37:41;6.37;;;3.70;;
6638;SDS011;3355;52.882;8.430;2023-02-28T04:40:11;4.43;;;3.27;;
6638;SDS011;3355;52.882;8.430;2023-02-28T04:42:37;6.30;;;2.60;;
6638;SDS011;3355;52.882;8.430;2023-02-28T04:45:04;4.47;;;3.23;;
6638;SDS011;3355;52.882;8.430;2023-02-28T04:47:35;4.43;;;3.17;;
6638;SDS011;3355;52.882;8.430;2023-02-28T04:50:02;3.93;;;2.60;;
6638;SDS011;3355;52.882;8.430;2023-02-28T04:52:29;4.03;;;3.10;;
6638;SDS011;3355;52.882;8.430;2023-02-28T04:54:56;5.37;;;3.23;;
6638;SDS011;3355;52.882;8.430;2023-02-28T04:57:24;5.20;;;3.03;;
6638;SDS011;3355;52.882;8.430;2023-02-28T04:59:50;5.80;;;2.97;;
6638;SDS011;3355;52.882;8.430;2023-02-28T05:02:17;5.90;;;3.17;;
6638;SDS011;3355;52.882;8.430;2023-02-28T05:04:46;4.80;;;3.03;;
6638;SDS011;3355;52.882;8.430;2023-02-28T05:07:12;6.37;;;3.30;;
6638;SDS011;3355;52.882;8.430;2023-02-28T05:09:39;9.90;;;4.73;;
6638;SDS011;3355;52.882;8.430;2023-02-28T05:12:06;5.10;;;3.47;;
6638;SDS011;3355;52.882;8.430;2023-02-28T05:14:35;5.57;;;3.73;;
6638;SDS011;3355;52.882;8.430;2023-02-28T05:17:02;7.30;;;3.63;;
6638;SDS011;3355;52.882;8.430;2023-02-28T05:19:30;5.37;;;3.07;;
6638;SDS011;3355;52.882;8.430;2023-02-28T05:21:56;5.60;;;4.23;;
6638;SDS011;3355;52.882;8.430;2023-02-28T05:24:24;4.93;;;3.30;;
6638;SDS011;3355;52.882;8.430;2023-02-28T05:26:51;4.00;;;2.97;;
6638;SDS011;3355;52.882;8.430;2023-02-28T05:29:30;4.87;;;3.37;;
6638;SDS011;3355;52.882;8.430;2023-02-28T05:32:10;5.93;;;3.70;;
6638;SDS011;3355;52.882;8.430;2023-02-28T05:34:38;6.30;;;4.07;;
6638;SDS011;3355;52.882;8.430;2023-02-28T05:37:05;6.53;;;3.80;;
6638;SDS011;3355;52.882;8.430;2023-02-28T05:39:33;6.00;;;4.40;;
6638;SDS011;3355;52.882;8.430;2023-02-28T05:41:59;5.70;;;4.00;;
6638;SDS011;3355;52.882;8.430;2023-02-28T05:44:37;6.97;;;3.90;;
6638;SDS011;3355;52.882;8.430;2023-02-28T05:47:04;7.17;;;4.93;;
6638;SDS011;3355;52.882;8.430;2023-02-28T05:49:44;6.23;;;3.90;;
6638;SDS011;3355;52.882;8.430;2023-02-28T05:52:11;5.57;;;4.07;;
6638;SDS011;3355;52.882;8.430;2023-02-28T05:54:38;7.03;;;4.40;;
6638;SDS011;3355;52.882;8.430;2023-02-28T05:57:05;6.83;;;4.57;;
6638;SDS011;3355;52.882;8.430;2023-02-28T05:59:32;6.73;;;4.30;;
6638;SDS011;3355;52.882;8.430;2023-02-28T06:02:10;5.13;;;4.10;;
6638;SDS011;3355;52.882;8.430;2023-02-28T06:04:39;7.70;;;4.03;;
6638;SDS011;3355;52.882;8.430;2023-02-28T06:07:08;6.03;;;4.07;;
6638;SDS011;3355;52.882;8.430;2023-02-28T06:09:39;7.07;;;3.97;;
6638;SDS011;3355;52.882;8.430;2023-02-28T06:12:07;5.17;;;4.67;;
6638;SDS011;3355;52.882;8.430;2023-02-28T06:14:35;5.10;;;3.80;;
6638;SDS011;3355;52.882;8.430;2023-02-28T06:17:05;6.40;;;3.90;;
6638;SDS011;3355;52.882;8.430;2023-02-28T06:19:38;5.17;;;3.97;;
6638;SDS011;3355;52.882;8.430;2023-02-28T06:22:08;7.30;;;5.07;;
6638;SDS011;3355;52.882;8.430;2023-02-28T06:24:35;8.60;;;3.93;;
6638;SDS011;3355;52.882;8.430;2023-02-28T06:27:01;4.60;;;3.50;;
6638;SDS011;3355;52.882;8.430;2023-02-28T06:29:30;5.90;;;4.97;;
6638;SDS011;3355;52.882;8.430;2023-02-28T06:31:57;7.70;;;4.20;;
6638;SDS011;3355;52.882;8.430;2023-02-28T06:34:24;5.20;;;3.90;;
6638;SDS011;3355;52.882;8.430;2023-02-28T06:36:51;5.47;;;4.53;;
6638;SDS011;3355;52.882;8.430;2023-02-28T06:39:31;10.03;;;4.10;;
6638;SDS011;3355;52.882;8.430;2023-02-28T06:42:09;6.00;;;4.10;;
6638;SDS011;3355;52.882;8.430;2023-02-28T06:44:39;5.87;;;4.03;;
6638;SDS011;3355;52.882;8.430;2023-02-28T06:47:07;5.40;;;4.17;;
6638;SDS011;3355;52.882;8.430;2023-02-28T06:49:37;6.87;;;4.10;;
6638;SDS011;3355;52.882;8.430;2023-02-28T06:52:07;5.80;;;3.90;;
6638;SDS011;3355;52.882;8.430;2023-02-28T06:54:37;6.40;;;4.60;;
6638;SDS011;3355;52.882;8.430;2023-02-28T06:57:06;6.20;;;4.40;;
6638;SDS011;3355;52.882;8.430;2023-02-28T06:59:32;4.77;;;3.70;;
6638;SDS011;3355;52.882;8.430;2023-02-28T07:02:00;6.83;;;4.50;;
6638;SDS011;3355;52.882;8.430;2023-02-28T07:04:27;5.70;;;3.87;;
6638;SDS011;3355;52.882;8.430;2023-02-28T07:06:54;4.60;;;3.43;;
6638;SDS011;3355;52.882;8.430;2023-02-28T07:09:22;4.63;;;4.00;;
6638;SDS011;3355;52.882;8.430;2023-02-28T07:11:50;4.67;;;4.00;;
6638;SDS011;3355;52.882;8.430;2023-02-28T07:14:26;8.60;;;4.13;;
6638;SDS011;3355;52.882;8.430;2023-02-28T07:17:08;5.03;;;3.47;;
6638;SDS011;3355;52.882;8.430;2023-02-28T07:19:37;5.77;;;4.53;;
6638;SDS011;3355;52.882;8.430;2023-02-28T07:22:04;6.03;;;4.40;;
6638;SDS011;3355;52.882;8.430;2023-02-28T07:24:33;4.93;;;3.83;;
6638;SDS011;3355;52.882;8.430;2023-02-28T07:27:01;5.70;;;4.00;;
6638;SDS011;3355;52.882;8.430;2023-02-28T07:29:28;5.50;;;3.63;;
6638;SDS011;3355;52.882;8.430;2023-02-28T07:31:56;6.37;;;3.23;;
6638;SDS011;3355;52.882;8.430;2023-02-28T07:34:23;5.90;;;4.20;;
6638;SDS011;3355;52.882;8.430;2023-02-28T07:36:53;7.87;;;4.30;;
6638;SDS011;3355;52.882;8.430;2023-02-28T07:39:20;7.13;;;4.00;;
6638;SDS011;3355;52.882;8.430;2023-02-28T07:42:10;5.40;;;3.63;;
6638;SDS011;3355;52.882;8.430;2023-02-28T07:44:38;5.23;;;3.67;;
6638;SDS011;3355;52.882;8.430;2023-02-28T07:47:06;8.23;;;3.87;;
6638;SDS011;3355;52.882;8.430;2023-02-28T07:49:40;5.80;;;3.70;;
6638;SDS011;3355;52.882;8.430;2023-02-28T07:52:08;5.10;;;3.87;;
6638;SDS011;3355;52.882;8.430;2023-02-28T07:54:37;6.50;;;3.70;;
6638;SDS011;3355;52.882;8.430;2023-02-28T07:57:31;6.50;;;4.13;;
6638;SDS011;3355;52.882;8.430;2023-02-28T08:00:01;4.20;;;3.40;;
6638;SDS011;3355;52.882;8.430;2023-02-28T08:02:29;4.63;;;3.60;;
6638;SDS011;3355;52.882;8.430;2023-02-28T08:05:00;5.27;;;3.40;;
6638;SDS011;3355;52.882;8.430;2023-02-28T08:07:29;3.57;;;2.40;;
6638;SDS011;3355;52.882;8.430;2023-02-28T08:09:56;4.23;;;2.83;;
6638;SDS011;3355;52.882;8.430;2023-02-28T08:12:31;4.00;;;2.50;;
6638;SDS011;3355;52.882;8.430;2023-02-28T08:14:58;3.90;;;2.50;;
6638;SDS011;3355;52.882;8.430;2023-02-28T08:17:25;2.80;;;1.80;;
6638;SDS011;3355;52.882;8.430;2023-02-28T08:23:06;4.57;;;2.23;;
6638;SDS011;3355;52.882;8.430;2023-02-28T08:25:33;2.93;;;1.50;;
6638;SDS011;3355;52.882;8.430;2023-02-28T08:28:02;2.73;;;1.50;;
6638;SDS011;3355;52.882;8.430;2023-02-28T08:30:29;3.00;;;1.40;;
6638;SDS011;3355;52.882;8.430;2023-02-28T08:32:56;2.90;;;1.50;;
6638;SDS011;3355;52.882;8.430;2023-02-28T08:35:29;2.60;;;1.30;;
6638;SDS011;3355;52.882;8.430;2023-02-28T08:37:59;3.03;;;1.43;;
6638;SDS011;3355;52.882;8.430;2023-02-28T08:40:25;3.20;;;1.50;;
6638;SDS011;3355;52.882;8.430;2023-02-28T08:42:55;7.03;;;1.93;;
6638;SDS011;3355;52.882;8.430;2023-02-28T08:45:24;2.23;;;1.30;;
6638;SDS011;3355;52.882;8.430;2023-02-28T08:47:53;2.70;;;1.80;;
6638;SDS011;3355;52.882;8.430;2023-02-28T08:52:57;4.03;;;0.90;;
6638;SDS011;3355;52.882;8.430;2023-02-28T08:55:27;2.73;;;1.50;;
6638;SDS011;3355;52.882;8.430;2023-02-28T08:57:54;3.07;;;1.30;;
6638;SDS011;3355;52.882;8.430;2023-02-28T09:00:32;2.30;;;1.30;;
6638;SDS011;3355;52.882;8.430;2023-02-28T09:02:59;3.03;;;1.10;;
6638;SDS011;3355;52.882;8.430;2023-02-28T09:05:29;3.37;;;1.20;;
6638;SDS011;3355;52.882;8.430;2023-02-28T09:08:11;2.37;;;1.10;;
6638;SDS011;3355;52.882;8.430;2023-02-28T09:10:38;1.87;;;1.00;;
6638;SDS011;3355;52.882;8.430;2023-02-28T09:13:05;2.47;;;1.13;;
6638;SDS011;3355;52.882;8.430;2023-02-28T09:15:34;1.97;;;0.93;;
6638;SDS011;3355;52.882;8.430;2023-02-28T09:18:14;2.17;;;1.07;;
6638;SDS011;3355;52.882;8.430;2023-02-28T09:20:57;3.47;;;1.50;;
6638;SDS011;3355;52.882;8.430;2023-02-28T09:23:25;4.73;;;1.50;;
6638;SDS011;3355;52.882;8.430;2023-02-28T09:25:53;2.30;;;1.27;;
6638;SDS011;3355;52.882;8.430;2023-02-28T09:28:26;4.27;;;1.43;;
6638;SDS011;3355;52.882;8.430;2023-02-28T09:30:58;2.17;;;1.30;;
6638;SDS011;3355;52.882;8.430;2023-02-28T09:33:25;2.67;;;1.27;;
6638;SDS011;3355;52.882;8.430;2023-02-28T09:35:57;2.67;;;1.20;;
6638;SDS011;3355;52.882;8.430;2023-02-28T09:38:24;2.10;;;1.10;;
6638;SDS011;3355;52.882;8.430;2023-02-28T09:40:52;1.60;;;0.80;;
6638;SDS011;3355;52.882;8.430;2023-02-28T09:43:21;3.67;;;1.10;;
6638;SDS011;3355;52.882;8.430;2023-02-28T09:45:49;2.53;;;1.20;;
6638;SDS011;3355;52.882;8.430;2023-02-28T09:48:25;2.43;;;0.90;;
6638;SDS011;3355;52.882;8.430;2023-02-28T09:50:59;2.17;;;0.90;;
6638;SDS011;3355;52.882;8.430;2023-02-28T09:53:48;2.57;;;0.90;;
6638;SDS011;3355;52.882;8.430;2023-02-28T09:56:15;2.83;;;1.10;;
6638;SDS011;3355;52.882;8.430;2023-02-28T09:58:51;3.33;;;2.40;;
6638;SDS011;3355;52.882;8.430;2023-02-28T10:01:21;2.17;;;1.00;;
6638;SDS011;3355;52.882;8.430;2023-02-28T10:03:54;2.10;;;1.00;;
6638;SDS011;3355;52.882;8.430;2023-02-28T10:06:26;2.10;;;1.03;;
6638;SDS011;3355;52.882;8.430;2023-02-28T10:08:56;2.67;;;1.47;;
6638;SDS011;3355;52.882;8.430;2023-02-28T10:11:24;2.80;;;0.90;;
6638;SDS011;3355;52.882;8.430;2023-02-28T10:13:52;2.50;;;1.27;;
6638;SDS011;3355;52.882;8.430;2023-02-28T10:16:25;2.50;;;1.20;;
6638;SDS011;3355;52.882;8.430;2023-02-28T10:18:58;2.17;;;1.20;;
6638;SDS011;3355;52.882;8.430;2023-02-28T10:21:30;2.20;;;1.13;;
6638;SDS011;3355;52.882;8.430;2023-02-28T10:24:04;2.10;;;1.30;;
6638;SDS011;3355;52.882;8.430;2023-02-28T10:26:49;3.00;;;1.53;;
6638;SDS011;3355;52.882;8.430;2023-02-28T10:29:18;2.67;;;0.90;;
6638;SDS011;3355;52.882;8.430;2023-02-28T10:31:45;3.93;;;1.47;;
6638;SDS011;3355;52.882;8.430;2023-02-28T10:34:13;2.40;;;0.97;;
6638;SDS011;3355;52.882;8.430;2023-02-28T10:36:40;2.10;;;1.30;;
6638;SDS011;3355;52.882;8.430;2023-02-28T10:42:02;2.00;;;1.23;;
6638;SDS011;3355;52.882;8.430;2023-02-28T10:44:30;2.83;;;1.40;;
6638;SDS011;3355;52.882;8.430;2023-02-28T10:46:56;2.40;;;1.60;;
6638;SDS011;3355;52.882;8.430;2023-02-28T10:49:26;2.33;;;1.10;;
6638;SDS011;3355;52.882;8.430;2023-02-28T10:51:55;2.93;;;1.30;;
6638;SDS011;3355;52.882;8.430;2023-02-28T10:54:24;2.07;;;1.10;;
6638;SDS011;3355;52.882;8.430;2023-02-28T10:57:05;2.27;;;1.10;;
6638;SDS011;3355;52.882;8.430;2023-02-28T10:59:33;2.00;;;1.00;;
6638;SDS011;3355;52.882;8.430;2023-02-28T11:02:00;2.10;;;0.90;;
6638;SDS011;3355;52.882;8.430;2023-02-28T11:04:36;2.90;;;1.30;;
6638;SDS011;3355;52.882;8.430;2023-02-28T11:07:05;2.10;;;1.10;;
6638;SDS011;3355;52.882;8.430;2023-02-28T11:09:37;1.90;;;1.00;;
6638;SDS011;3355;52.882;8.430;2023-02-28T11:12:05;2.00;;;1.00;;
6638;SDS011;3355;52.882;8.430;2023-02-28T11:14:35;2.43;;;0.80;;
6638;SDS011;3355;52.882;8.430;2023-02-28T11:17:11;2.10;;;1.20;;
6638;SDS011;3355;52.882;8.430;2023-02-28T11:19:45;2.57;;;1.07;;
6638;SDS011;3355;52.882;8.430;2023-02-28T11:22:16;1.63;;;0.70;;
6638;SDS011;3355;52.882;8.430;2023-02-28T11:24:44;2.60;;;1.50;;
6638;SDS011;3355;52.882;8.430;2023-02-28T11:27:24;2.13;;;1.17;;
6638;SDS011;3355;52.882;8.430;2023-02-28T11:29:51;2.00;;;1.00;;
6638;SDS011;3355;52.882;8.430;2023-02-28T11:32:18;2.23;;;1.00;;
6638;SDS011;3355;52.882;8.430;2023-02-28T11:34:59;2.37;;;1.23;;
6638;SDS011;3355;52.882;8.430;2023-02-28T11:37:27;2.20;;;1.30;;
6638;SDS011;3355;52.882;8.430;2023-02-28T11:39:54;2.47;;;1.20;;
6638;SDS011;3355;52.882;8.430;2023-02-28T11:45:25;2.07;;;1.03;;
6638;SDS011;3355;52.882;8.430;2023-02-28T11:48:04;2.10;;;1.00;;
6638;SDS011;3355;52.882;8.430;2023-02-28T11:50:47;2.50;;;1.27;;
6638;SDS011;3355;52.882;8.430;2023-02-28T11:53:22;2.53;;;1.20;;
6638;SDS011;3355;52.882;8.430;2023-02-28T11:55:54;2.20;;;1.00;;
6638;SDS011;3355;52.882;8.430;2023-02-28T11:58:29;2.20;;;1.03;;
6638;SDS011;3355;52.882;8.430;2023-02-28T12:01:10;2.20;;;1.10;;
6638;SDS011;3355;52.882;8.430;2023-02-28T12:03:43;1.50;;;0.80;;
6638;SDS011;3355;52.882;8.430;2023-02-28T12:06:18;1.83;;;1.00;;
6638;SDS011;3355;52.882;8.430;2023-02-28T12:08:51;1.80;;;1.00;;
6638;SDS011;3355;52.882;8.430;2023-02-28T12:11:28;1.90;;;1.00;;
6638;SDS011;3355;52.882;8.430;2023-02-28T12:14:00;1.80;;;0.80;;
6638;SDS011;3355;52.882;8.430;2023-02-28T12:16:47;1.80;;;1.00;;
6638;SDS011;3355;52.882;8.430;2023-02-28T12:19:20;2.00;;;0.93;;
6638;SDS011;3355;52.882;8.430;2023-02-28T12:21:56;1.70;;;0.90;;
6638;SDS011;3355;52.882;8.430;2023-02-28T12:27:41;2.00;;;0.90;;
6638;SDS011;3355;52.882;8.430;2023-02-28T12:30:13;1.50;;;0.70;;
6638;SDS011;3355;52.882;8.430;2023-02-28T12:32:44;1.80;;;0.90;;
6638;SDS011;3355;52.882;8.430;2023-02-28T12:35:12;2.13;;;1.00;;
6638;SDS011;3355;52.882;8.430;2023-02-28T12:37:43;1.80;;;0.90;;
6638;SDS011;3355;52.882;8.430;2023-02-28T12:40:12;2.33;;;1.07;;
6638;SDS011;3355;52.882;8.430;2023-02-28T12:42:42;1.83;;;0.90;;
6638;SDS011;3355;52.882;8.430;2023-02-28T12:45:12;2.23;;;1.17;;
6638;SDS011;3355;52.882;8.430;2023-02-28T12:47:42;2.27;;;0.93;;
6638;SDS011;3355;52.882;8.430;2023-02-28T12:50:10;2.60;;;1.00;;
6638;SDS011;3355;52.882;8.430;2023-02-28T12:52:39;1.90;;;1.17;;
6638;SDS011;3355;52.882;8.430;2023-02-28T12:55:12;3.40;;;0.97;;
6638;SDS011;3355;52.882;8.430;2023-02-28T12:57:42;1.70;;;1.00;;
6638;SDS011;3355;52.882;8.430;2023-02-28T13:00:13;1.93;;;1.00;;
6638;SDS011;3355;52.882;8.430;2023-02-28T13:06:12;3.33;;;1.50;;
6638;SDS011;3355;52.882;8.430;2023-02-28T13:11:32;1.87;;;0.87;;
6638;SDS011;3355;52.882;8.430;2023-02-28T13:14:05;2.23;;;1.30;;
6638;SDS011;3355;52.882;8.430;2023-02-28T13:19:25;1.80;;;0.90;;
6638;SDS011;3355;52.882;8.430;2023-02-28T13:21:53;1.80;;;0.97;;
6638;SDS011;3355;52.882;8.430;2023-02-28T13:27:21;1.97;;;1.57;;
6638;SDS011;3355;52.882;8.430;2023-02-28T13:29:51;2.03;;;0.97;;
6638;SDS011;3355;52.882;8.430;2023-02-28T13:32:19;2.73;;;1.10;;
6638;SDS011;3355;52.882;8.430;2023-02-28T13:35:14;1.70;;;0.80;;
6638;SDS011;3355;52.882;8.430;2023-02-28T13:38:09;2.73;;;1.20;;
6638;SDS011;3355;52.882;8.430;2023-02-28T13:40:45;1.80;;;1.10;;
6638;SDS011;3355;52.882;8.430;2023-02-28T13:43:12;1.53;;;0.83;;
6638;SDS011;3355;52.882;8.430;2023-02-28T13:48:33;2.30;;;1.20;;
6638;SDS011;3355;52.882;8.430;2023-02-28T13:50:59;2.83;;;1.20;;
6638;SDS011;3355;52.882;8.430;2023-02-28T13:53:54;2.33;;;1.07;;
6638;SDS011;3355;52.882;8.430;2023-02-28T13:56:27;2.67;;;1.40;;
6638;SDS011;3355;52.882;8.430;2023-02-28T13:59:06;2.40;;;1.50;;
6638;SDS011;3355;52.882;8.430;2023-02-28T14:01:47;1.80;;;1.23;;
6638;SDS011;3355;52.882;8.430;2023-02-28T14:04:37;2.80;;;1.23;;
6638;SDS011;3355;52.882;8.430;2023-02-28T14:07:15;1.80;;;1.00;;
6638;SDS011;3355;52.882;8.430;2023-02-28T14:09:46;2.93;;;1.10;;
6638;SDS011;3355;52.882;8.430;2023-02-28T14:15:27;2.20;;;1.40;;
6638;SDS011;3355;52.882;8.430;2023-02-28T14:17:57;2.83;;;1.40;;
6638;SDS011;3355;52.882;8.430;2023-02-28T14:20:26;1.70;;;1.10;;
6638;SDS011;3355;52.882;8.430;2023-02-28T14:22:56;2.37;;;1.20;;
6638;SDS011;3355;52.882;8.430;2023-02-28T14:25:32;2.53;;;1.60;;
6638;SDS011;3355;52.882;8.430;2023-02-28T14:28:04;3.43;;;1.43;;
6638;SDS011;3355;52.882;8.430;2023-02-28T14:30:51;2.20;;;1.37;;
6638;SDS011;3355;52.882;8.430;2023-02-28T14:36:21;2.30;;;1.27;;
6638;SDS011;3355;52.882;8.430;2023-02-28T14:38:51;3.17;;;1.53;;
6638;SDS011;3355;52.882;8.430;2023-02-28T14:41:21;2.13;;;1.30;;
6638;SDS011;3355;52.882;8.430;2023-02-28T14:43:56;1.80;;;1.30;;
6638;SDS011;3355;52.882;8.430;2023-02-28T14:46:25;1.90;;;1.20;;
6638;SDS011;3355;52.882;8.430;2023-02-28T14:49:03;2.67;;;1.37;;
6638;SDS011;3355;52.882;8.430;2023-02-28T14:51:30;2.80;;;1.57;;
6638;SDS011;3355;52.882;8.430;2023-02-28T14:53:58;3.00;;;1.13;;
6638;SDS011;3355;52.882;8.430;2023-02-28T14:56:28;1.83;;;1.00;;
6638;SDS011;3355;52.882;8.430;2023-02-28T14:59:03;2.80;;;1.30;;
6638;SDS011;3355;52.882;8.430;2023-02-28T15:01:31;2.20;;;1.50;;
6638;SDS011;3355;52.882;8.430;2023-02-28T15:03:59;2.60;;;1.50;;
6638;SDS011;3355;52.882;8.430;2023-02-28T15:06:28;2.23;;;1.33;;
6638;SDS011;3355;52.882;8.430;2023-02-28T15:09:07;3.37;;;1.50;;
6638;SDS011;3355;52.882;8.430;2023-02-28T16:02:17;3.13;;;1.43;;
6638;SDS011;3355;52.882;8.430;2023-02-28T16:04:55;3.40;;;1.50;;
6638;SDS011;3355;52.882;8.430;2023-02-28T16:07:23;2.57;;;1.37;;
6638;SDS011;3355;52.882;8.430;2023-02-28T16:09:50;2.77;;;1.13;;
6638;SDS011;3355;52.882;8.430;2023-02-28T16:12:17;3.87;;;1.63;;
6638;SDS011;3355;52.882;8.430;2023-02-28T16:14:44;3.43;;;1.67;;
6638;SDS011;3355;52.882;8.430;2023-02-28T16:17:16;4.53;;;1.50;;
6638;SDS011;3355;52.882;8.430;2023-02-28T16:19:46;3.63;;;1.80;;
6638;SDS011;3355;52.882;8.430;2023-02-28T16:22:13;2.93;;;1.63;;
6638;SDS011;3355;52.882;8.430;2023-02-28T16:24:40;2.67;;;1.47;;
6638;SDS011;3355;52.882;8.430;2023-02-28T16:27:07;2.37;;;1.40;;
6638;SDS011;3355;52.882;8.430;2023-02-28T16:29:43;2.40;;;1.70;;
6638;SDS011;3355;52.882;8.430;2023-02-28T16:32:10;2.83;;;1.43;;
6638;SDS011;3355;52.882;8.430;2023-02-28T16:34:40;2.50;;;1.60;;
6638;SDS011;3355;52.882;8.430;2023-02-28T16:37:09;3.80;;;1.80;;
6638;SDS011;3355;52.882;8.430;2023-02-28T16:39:37;3.70;;;1.97;;
6638;SDS011;3355;52.882;8.430;2023-02-28T16:42:04;3.10;;;1.83;;
6638;SDS011;3355;52.882;8.430;2023-02-28T16:44:39;4.63;;;2.00;;
6638;SDS011;3355;52.882;8.430;2023-02-28T16:47:08;3.47;;;2.13;;
6638;SDS011;3355;52.882;8.430;2023-02-28T16:49:35;2.70;;;1.83;;
6638;SDS011;3355;52.882;8.430;2023-02-28T16:52:03;2.63;;;1.93;;
6638;SDS011;3355;52.882;8.430;2023-02-28T16:54:31;3.13;;;1.90;;
6638;SDS011;3355;52.882;8.430;2023-02-28T16:56:57;3.63;;;2.10;;
6638;SDS011;3355;52.882;8.430;2023-02-28T16:59:24;3.10;;;1.77;;
6638;SDS011;3355;52.882;8.430;2023-02-28T17:01:53;5.13;;;2.20;;
6638;SDS011;3355;52.882;8.430;2023-02-28T17:04:20;2.90;;;1.90;;
6638;SDS011;3355;52.882;8.430;2023-02-28T17:06:47;5.53;;;1.87;;
6638;SDS011;3355;52.882;8.430;2023-02-28T17:09:16;3.03;;;1.83;;
6638;SDS011;3355;52.882;8.430;2023-02-28T17:11:43;3.80;;;1.87;;
6638;SDS011;3355;52.882;8.430;2023-02-28T17:14:11;3.90;;;2.10;;